Terminal Aerodrome Forecast
Issued by NWS North Platte, NE

Home | Current Version | Previous Version | Graphics & Text | Print | Product List | Glossary On
Versions: 1 2 3 4 5 6 7 8 9 10 11 12 13 14 15
385
FTUS43 KLBF 201720
TAFVTN
TAF
KVTN 201720Z 2018/2118 20020G30KT P6SM SCT250
     FM202300 18015G23KT P6SM BKN200
     FM210300 19012KT P6SM BKN200 WS020/19040KT
     FM210800 27014G21KT P6SM VCSH BKN100
     FM211200 32017G25KT P6SM VCSH OVC100
     FM211500 32017G25KT P6SM BKN100=

USA.gov is the U.S. government's official web portal to all federal, state and local government web resources and services.